createdAt,value
2019-05-18T00:01:51.299Z,21.83
2019-05-18T00:02:51.281Z,21.92
2019-05-18T00:03:51.270Z,21.80
2019-05-18T00:04:51.265Z,21.80
2019-05-18T00:05:51.249Z,21.91
2019-05-18T00:06:51.252Z,21.80
2019-05-18T00:07:51.235Z,21.79
2019-05-18T00:08:51.218Z,21.89
2019-05-18T00:09:51.211Z,21.80
2019-05-18T00:10:51.195Z,21.79
2019-05-18T00:11:51.184Z,21.96
2019-05-18T00:12:51.177Z,21.91
2019-05-18T00:13:51.158Z,21.83
2019-05-18T00:14:51.185Z,21.88
2019-05-18T00:15:51.133Z,21.91
2019-05-18T00:16:51.131Z,21.93
2019-05-18T00:17:51.111Z,21.75
2019-05-18T00:18:51.105Z,21.92
2019-05-18T00:19:51.096Z,21.83
2019-05-18T00:20:51.086Z,21.88
2019-05-18T00:22:51.099Z,21.79
2019-05-18T00:23:57.142Z,21.82
2019-05-18T00:24:51.039Z,21.77
2019-05-18T00:25:51.022Z,21.72
2019-05-18T00:27:51.033Z,21.76
2019-05-18T00:28:50.996Z,21.73
2019-05-18T00:29:50.987Z,21.77
2019-05-18T00:30:50.973Z,21.77
2019-05-18T00:32:50.957Z,21.83
2019-05-18T00:33:50.935Z,21.83
2019-05-18T00:34:51.514Z,21.88
2019-05-18T00:35:50.926Z,21.85
2019-05-18T00:36:50.902Z,21.83
2019-05-18T00:37:50.935Z,21.88
2019-05-18T00:38:50.875Z,21.89
2019-05-18T00:39:50.868Z,21.85
2019-05-18T00:40:50.852Z,21.76
2019-05-18T00:41:50.846Z,21.73
2019-05-18T00:42:50.834Z,21.85
2019-05-18T00:43:50.841Z,21.73
2019-05-18T00:44:50.807Z,21.77
2019-05-18T00:45:50.800Z,21.79
2019-05-18T00:46:50.791Z,21.85
2019-05-18T00:47:50.778Z,21.83
2019-05-18T00:48:50.762Z,21.83
2019-05-18T00:49:50.763Z,21.89
2019-05-18T00:50:50.743Z,21.92
2019-05-18T00:51:50.730Z,21.83
2019-05-18T00:53:50.710Z,21.93
2019-05-18T00:54:50.714Z,21.92
2019-05-18T00:55:57.075Z,21.85
2019-05-18T00:56:50.679Z,21.80
2019-05-18T00:57:50.663Z,21.88
2019-05-18T00:59:50.641Z,21.92
2019-05-18T01:00:50.690Z,21.89
2019-05-18T01:01:50.619Z,21.93
2019-05-18T01:03:50.593Z,21.88
2019-05-18T01:04:50.583Z,21.88
2019-05-18T01:05:50.572Z,21.89
2019-05-18T01:06:50.605Z,21.83
2019-05-18T01:07:50.560Z,21.85
2019-05-18T01:08:50.538Z,21.91
2019-05-18T01:09:50.533Z,21.91
2019-05-18T01:10:50.515Z,21.85
2019-05-18T01:11:50.509Z,21.73
2019-05-18T01:12:50.506Z,21.75
2019-05-18T01:13:50.482Z,21.80
2019-05-18T01:14:50.475Z,21.79
2019-05-18T01:15:50.459Z,21.91
2019-05-18T01:16:50.470Z,21.91
2019-05-18T01:17:57.316Z,21.88
2019-05-18T01:18:51.428Z,21.85
2019-05-18T01:19:50.421Z,21.82
2019-05-18T01:20:50.403Z,21.83
2019-05-18T01:21:50.442Z,21.89
2019-05-18T01:22:50.388Z,21.91
2019-05-18T01:24:50.368Z,21.92
2019-05-18T01:25:50.354Z,21.88
2019-05-18T01:26:50.344Z,21.93
2019-05-18T01:27:57.103Z,21.80
2019-05-18T01:28:50.319Z,21.83
2019-05-18T01:29:50.306Z,21.83
2019-05-18T01:31:50.285Z,21.89
2019-05-18T01:32:50.272Z,21.92
2019-05-18T01:34:50.315Z,21.88
2019-05-18T01:35:50.242Z,21.92
2019-05-18T01:36:50.243Z,21.85
2019-05-18T01:37:50.216Z,21.85
2019-05-18T01:38:50.225Z,21.83
2019-05-18T01:39:50.197Z,21.93
2019-05-18T01:40:50.182Z,21.77
2019-05-18T01:41:50.178Z,21.82
2019-05-18T01:42:50.162Z,21.85
2019-05-18T01:43:50.146Z,21.85
2019-05-18T01:44:50.153Z,21.88
2019-05-18T01:45:50.134Z,21.76
2019-05-18T01:46:50.120Z,21.85
2019-05-18T01:47:50.105Z,21.85
2019-05-18T01:48:50.093Z,21.83
2019-05-18T01:49:50.098Z,21.88
2019-05-18T01:50:50.082Z,21.89
2019-05-18T01:51:50.111Z,21.91
2019-05-18T01:52:50.050Z,21.89
2019-05-18T01:53:50.035Z,21.85
2019-05-18T01:55:50.020Z,21.89
2019-05-18T01:56:50.006Z,21.98
2019-05-18T01:57:49.999Z,21.93
2019-05-18T01:58:49.979Z,21.96
2019-05-18T01:59:56.353Z,21.93
2019-05-18T02:00:49.981Z,21.92
2019-05-18T02:01:49.950Z,21.93
2019-05-18T02:03:49.921Z,21.91
2019-05-18T02:05:49.904Z,21.92
2019-05-18T02:06:49.900Z,21.83
2019-05-18T02:07:49.884Z,21.96
2019-05-18T02:08:49.865Z,21.92
2019-05-18T02:09:49.863Z,21.91
2019-05-18T02:10:49.849Z,21.80
2019-05-18T02:11:49.844Z,21.83
2019-05-18T02:12:49.826Z,21.91
2019-05-18T02:13:49.810Z,21.80
2019-05-18T02:14:49.800Z,21.79
2019-05-18T02:15:49.790Z,21.89
2019-05-18T02:16:49.817Z,21.85
2019-05-18T02:17:49.787Z,21.79
2019-05-18T02:18:49.754Z,21.83
2019-05-18T02:19:49.751Z,21.80
2019-05-18T02:20:49.739Z,21.75
2019-05-18T02:21:49.735Z,21.82
2019-05-18T02:22:49.787Z,21.89
2019-05-18T02:23:49.701Z,21.79
2019-05-18T02:24:49.688Z,21.89
2019-05-18T02:26:49.666Z,21.88
2019-05-18T02:27:49.654Z,21.88
2019-05-18T02:28:49.651Z,21.85
2019-05-18T02:29:49.641Z,21.77
2019-05-18T02:30:49.619Z,21.83
2019-05-18T02:31:55.700Z,21.83
2019-05-18T02:32:49.599Z,21.80
2019-05-18T02:33:49.598Z,21.82
2019-05-18T02:36:49.554Z,21.85
2019-05-18T02:37:49.560Z,21.89
2019-05-18T02:38:49.532Z,21.89
2019-05-18T02:39:49.522Z,21.88
2019-05-18T02:40:49.520Z,21.83
2019-05-18T02:41:49.505Z,21.93
2019-05-18T02:42:49.490Z,21.91
2019-05-18T02:43:49.492Z,21.92
2019-05-18T02:44:49.471Z,21.91
2019-05-18T02:45:49.466Z,21.95
2019-05-18T02:46:49.447Z,21.92
2019-05-18T02:47:49.432Z,22.00
2019-05-18T02:48:50.778Z,21.99
2019-05-18T02:49:49.417Z,22.02
2019-05-18T02:50:49.395Z,21.96
2019-05-18T02:51:49.398Z,22.06
2019-05-18T02:52:49.375Z,22.06
2019-05-18T02:53:49.371Z,22.10
2019-05-18T02:54:49.388Z,21.98
2019-05-18T02:55:49.345Z,21.91
2019-05-18T02:57:49.320Z,22.08
2019-05-18T02:58:49.309Z,22.06
2019-05-18T02:59:49.304Z,22.06
2019-05-18T03:00:49.294Z,22.02
2019-05-18T03:01:49.275Z,21.95
2019-05-18T03:02:49.268Z,21.92
2019-05-18T03:03:55.647Z,21.99
2019-05-18T03:04:49.247Z,21.95
2019-05-18T03:05:49.280Z,21.85
2019-05-18T03:07:49.211Z,21.91
2019-05-18T03:08:49.200Z,21.93
2019-05-18T03:09:49.184Z,21.91
2019-05-18T03:10:49.179Z,21.93
2019-05-18T03:11:49.174Z,21.91
2019-05-18T03:12:49.150Z,21.89
2019-05-18T03:13:49.140Z,21.89
2019-05-18T03:14:49.129Z,21.88
2019-05-18T03:15:49.132Z,21.89
2019-05-18T03:16:49.119Z,21.92
2019-05-18T03:17:49.095Z,21.89
2019-05-18T03:19:06.796Z,21.93
2019-05-18T03:19:50.074Z,21.92
2019-05-18T03:20:49.064Z,21.91
2019-05-18T03:21:49.068Z,21.93
2019-05-18T03:22:49.045Z,21.89
2019-05-18T03:23:49.035Z,21.89
2019-05-18T03:24:49.020Z,21.89
2019-05-18T03:25:49.006Z,21.88
2019-05-18T03:26:48.994Z,21.93
2019-05-18T03:28:48.975Z,21.92
2019-05-18T03:29:48.964Z,21.95
2019-05-18T03:30:49.003Z,21.96
2019-05-18T03:31:48.987Z,21.93
2019-05-18T03:32:48.935Z,21.91
2019-05-18T03:33:48.915Z,21.89
2019-05-18T03:34:48.907Z,21.91
2019-05-18T03:35:54.985Z,21.95
2019-05-18T03:36:48.889Z,21.92
2019-05-18T03:39:48.855Z,22.00
2019-05-18T03:40:48.843Z,22.07
2019-05-18T03:41:48.827Z,22.00
2019-05-18T03:42:48.813Z,22.07
2019-05-18T03:43:48.824Z,22.04
2019-05-18T03:44:48.797Z,22.02
2019-05-18T03:45:48.784Z,21.99
2019-05-18T03:46:48.777Z,22.08
2019-05-18T03:47:48.763Z,22.00
2019-05-18T03:48:48.750Z,22.06
2019-05-18T03:49:48.745Z,22.10
2019-05-18T03:50:48.727Z,22.11
2019-05-18T03:51:48.714Z,22.14
2019-05-18T03:52:48.702Z,22.18
2019-05-18T03:53:48.699Z,22.14
2019-05-18T03:54:48.687Z,22.20
2019-05-18T03:55:48.681Z,22.18
2019-05-18T03:56:48.664Z,22.25
2019-05-18T03:57:48.656Z,22.23
2019-05-18T03:59:48.623Z,22.20
2019-05-18T04:00:48.629Z,22.18
2019-05-18T04:01:48.605Z,22.22
2019-05-18T04:02:48.595Z,22.15
2019-05-18T04:03:48.581Z,22.18
2019-05-18T04:04:48.576Z,22.14
2019-05-18T04:05:48.572Z,22.18
2019-05-18T04:06:48.553Z,22.20
2019-05-18T04:07:54.930Z,22.25
2019-05-18T04:09:48.515Z,22.23
2019-05-18T04:11:48.537Z,22.22
2019-05-18T04:12:48.486Z,22.23
2019-05-18T04:13:48.473Z,22.23
2019-05-18T04:14:48.523Z,22.29
2019-05-18T04:15:48.447Z,22.30
2019-05-18T04:16:48.435Z,22.25
2019-05-18T04:17:48.462Z,22.33
2019-05-18T04:18:48.417Z,22.29
2019-05-18T04:19:48.403Z,22.25
2019-05-18T04:20:48.401Z,22.25
2019-05-18T04:21:48.378Z,22.26
2019-05-18T04:22:48.378Z,22.28
2019-05-18T04:23:48.368Z,22.25
2019-05-18T04:24:48.347Z,22.30
2019-05-18T04:25:48.339Z,22.44
2019-05-18T04:26:48.327Z,22.38
2019-05-18T04:27:48.331Z,22.38
2019-05-18T04:28:48.343Z,22.47
2019-05-18T04:30:48.281Z,22.44
2019-05-18T04:31:48.270Z,22.45
2019-05-18T04:32:48.257Z,22.54
2019-05-18T04:33:48.246Z,22.50
2019-05-18T04:34:48.357Z,22.57
2019-05-18T04:36:48.216Z,22.59
2019-05-18T04:37:48.207Z,22.65
2019-05-18T04:38:48.198Z,22.55
2019-05-18T04:39:54.685Z,22.55
2019-05-18T04:40:48.173Z,22.73
2019-05-18T04:41:48.164Z,22.70
2019-05-18T04:42:48.148Z,22.75
2019-05-18T04:50:48.084Z,22.83
2019-05-18T04:58:47.972Z,22.87
2019-05-18T05:11:54.178Z,23.05
2019-05-18T05:29:47.627Z,23.28
2019-05-18T05:43:55.718Z,23.46
2019-05-18T06:00:47.281Z,23.66
2019-05-18T06:15:54.210Z,23.69
2019-05-18T06:21:47.043Z,23.86
2019-05-18T06:31:46.947Z,23.92
2019-05-18T07:02:46.588Z,23.96
2019-05-18T07:14:46.453Z,24.03
2019-05-18T07:33:46.240Z,24.03
2019-05-18T07:56:45.982Z,24.03
2019-05-18T07:57:45.975Z,24.11
2019-05-18T07:58:45.966Z,24.11
2019-05-18T07:59:45.952Z,24.06
2019-05-18T08:00:45.953Z,24.06
2019-05-18T08:01:45.942Z,24.05
2019-05-18T08:02:45.922Z,24.03
2019-05-18T08:03:45.909Z,24.06
2019-05-18T08:04:45.937Z,24.03
2019-05-18T08:05:45.891Z,24.03
2019-05-18T08:06:45.876Z,24.06
2019-05-18T08:07:45.859Z,24.03
2019-05-18T08:09:45.837Z,24.02
2019-05-18T08:10:45.847Z,24.06
2019-05-18T08:11:45.816Z,24.05
2019-05-18T08:12:45.804Z,24.06
2019-05-18T08:13:45.801Z,24.06
2019-05-18T08:14:45.790Z,23.96
2019-05-18T08:15:45.778Z,24.06
2019-05-18T08:17:45.754Z,24.02
2019-05-18T08:18:45.736Z,24.02
2019-05-18T08:19:45.729Z,24.06
2019-05-18T08:20:45.728Z,23.99
2019-05-18T08:21:53.294Z,24.06
2019-05-18T08:22:46.706Z,24.10
2019-05-18T08:23:52.090Z,24.06
2019-05-18T08:24:45.672Z,24.03
2019-05-18T08:25:45.669Z,24.01
2019-05-18T08:26:45.660Z,24.03
2019-05-18T08:28:45.632Z,24.03
2019-05-18T08:29:45.618Z,23.98
2019-05-18T08:30:45.603Z,24.05
2019-05-18T08:31:45.591Z,24.05
2019-05-18T08:32:45.590Z,24.03
2019-05-18T08:33:45.571Z,24.02
2019-05-18T08:34:45.561Z,24.11
2019-05-18T08:35:45.549Z,24.06
2019-05-18T08:36:45.541Z,24.05
2019-05-18T08:37:45.535Z,24.06
2019-05-18T08:38:45.536Z,24.08
2019-05-18T08:40:45.498Z,23.96
2019-05-18T08:41:48.611Z,24.03
2019-05-18T08:42:45.520Z,24.01
2019-05-18T08:43:45.461Z,23.93
2019-05-18T08:44:45.461Z,23.98
2019-05-18T08:45:45.436Z,23.98
2019-05-18T08:46:45.425Z,23.98
2019-05-18T08:48:45.417Z,23.99
2019-05-18T08:49:45.417Z,23.98
2019-05-18T08:50:45.386Z,23.99
2019-05-18T08:51:45.372Z,24.02
2019-05-18T08:52:45.358Z,24.03
2019-05-18T08:53:45.353Z,24.03
2019-05-18T08:54:45.341Z,24.05
2019-05-18T08:55:52.348Z,24.01
2019-05-18T08:56:45.315Z,24.02
2019-05-18T08:57:45.310Z,23.96
2019-05-18T08:58:45.298Z,24.01
2019-05-18T09:00:45.271Z,23.98
2019-05-18T09:01:45.263Z,24.06
2019-05-18T09:02:45.254Z,23.98
2019-05-18T09:03:45.238Z,24.02
2019-05-18T09:04:45.236Z,24.06
2019-05-18T09:05:45.252Z,24.05
2019-05-18T09:06:45.208Z,24.08
2019-05-18T09:07:45.198Z,23.96
2019-05-18T09:08:45.193Z,23.96
2019-05-18T09:09:45.176Z,23.93
2019-05-18T09:11:45.157Z,24.02
2019-05-18T09:12:45.185Z,24.01
2019-05-18T09:13:45.132Z,23.96
2019-05-18T09:14:45.121Z,24.05
2019-05-18T09:15:45.144Z,24.05
2019-05-18T09:16:45.109Z,24.05
2019-05-18T09:17:45.086Z,23.98
2019-05-18T09:19:45.062Z,24.05
2019-05-18T09:20:45.048Z,23.95
2019-05-18T09:21:45.050Z,24.02
2019-05-18T09:22:45.026Z,23.93
2019-05-18T09:23:45.015Z,23.99
2019-05-18T09:24:45.011Z,23.92
2019-05-18T09:25:44.997Z,23.92
2019-05-18T09:26:44.981Z,23.95
2019-05-18T09:27:51.370Z,23.93
2019-05-18T09:28:44.962Z,23.93
2019-05-18T09:29:44.950Z,23.92
2019-05-18T09:30:44.935Z,23.92
2019-05-18T09:32:44.957Z,23.83
2019-05-18T09:33:44.908Z,23.86
2019-05-18T09:34:44.894Z,23.81
2019-05-18T09:35:44.888Z,23.80
2019-05-18T09:36:44.870Z,23.71
2019-05-18T09:37:44.858Z,23.74
2019-05-18T09:38:44.880Z,23.77
2019-05-18T09:39:44.835Z,23.80
2019-05-18T09:40:44.831Z,23.80
2019-05-18T09:42:44.804Z,23.73
2019-05-18T09:43:44.791Z,23.78
2019-05-18T09:44:44.789Z,23.74
2019-05-18T09:45:44.768Z,23.78
2019-05-18T09:46:44.763Z,23.76
2019-05-18T09:47:44.748Z,23.69
2019-05-18T09:48:44.736Z,23.69
2019-05-18T09:50:44.718Z,23.69
2019-05-18T09:51:44.707Z,23.69
2019-05-18T09:52:46.191Z,23.69
2019-05-18T09:53:51.518Z,23.73
2019-05-18T09:54:45.680Z,23.68
2019-05-18T09:55:44.661Z,23.69
2019-05-18T09:56:44.651Z,23.62
2019-05-18T09:57:44.636Z,23.62
2019-05-18T09:58:44.624Z,23.68
2019-05-18T09:59:51.492Z,23.61
2019-05-18T10:00:44.603Z,23.66
2019-05-18T10:01:44.593Z,23.62
2019-05-18T10:02:44.587Z,23.59
2019-05-18T10:04:44.557Z,23.69
2019-05-18T10:05:44.565Z,23.55
2019-05-18T10:06:44.567Z,23.47
2019-05-18T10:07:44.530Z,23.44
2019-05-18T10:08:44.525Z,23.44
2019-05-18T10:09:44.501Z,23.48
2019-05-18T10:10:44.534Z,23.40
2019-05-18T10:11:44.487Z,23.41
2019-05-18T10:12:44.474Z,23.39
2019-05-18T10:17:44.424Z,23.39
2019-05-18T10:23:44.347Z,23.21
2019-05-18T10:39:44.173Z,23.18
2019-05-18T10:40:44.154Z,23.10
2019-05-18T10:41:44.149Z,23.18
2019-05-18T10:42:44.150Z,23.12
2019-05-18T10:43:46.859Z,23.12
2019-05-18T10:44:44.113Z,23.09
2019-05-18T10:45:45.167Z,23.10
2019-05-18T10:46:44.094Z,23.06
2019-05-18T10:47:44.082Z,23.09
2019-05-18T10:48:44.070Z,23.08
2019-05-18T10:49:44.070Z,23.06
2019-05-18T10:50:44.054Z,23.03
2019-05-18T10:51:44.037Z,23.06
2019-05-18T10:52:44.027Z,23.02
2019-05-18T10:53:44.061Z,22.99
2019-05-18T10:54:44.038Z,22.91
2019-05-18T10:55:43.986Z,23.06
2019-05-18T10:56:43.981Z,23.05
2019-05-18T10:57:43.971Z,23.05
2019-05-18T10:58:43.960Z,23.05
2019-05-18T10:59:43.947Z,22.98
2019-05-18T11:00:43.939Z,22.96
2019-05-18T11:01:44.206Z,22.91
2019-05-18T11:02:43.907Z,22.94
2019-05-18T11:03:49.991Z,22.88
2019-05-18T11:04:43.885Z,22.84
2019-05-18T11:05:43.900Z,22.93
2019-05-18T11:06:43.871Z,22.91
2019-05-18T11:07:43.851Z,23.03
2019-05-18T11:08:43.843Z,22.98
2019-05-18T11:09:43.837Z,23.02
2019-05-18T11:10:43.819Z,22.94
2019-05-18T11:11:43.825Z,22.90
2019-05-18T11:12:43.805Z,22.96
2019-05-18T11:13:43.785Z,22.88
2019-05-18T11:14:43.777Z,22.88
2019-05-18T11:15:43.770Z,22.85
2019-05-18T11:16:43.794Z,22.87
2019-05-18T11:17:43.748Z,22.81
2019-05-18T11:18:43.729Z,22.85
2019-05-18T11:19:43.722Z,22.87
2019-05-18T11:20:43.706Z,22.87
2019-05-18T11:21:43.695Z,22.84
2019-05-18T11:22:43.694Z,22.87
2019-05-18T11:23:47.724Z,22.84
2019-05-18T11:24:43.666Z,22.87
2019-05-18T11:25:43.657Z,22.85
2019-05-18T11:26:43.643Z,22.83
2019-05-18T11:27:43.677Z,22.80
2019-05-18T11:28:43.618Z,22.85
2019-05-18T11:29:43.610Z,22.76
2019-05-18T11:30:43.596Z,22.78
2019-05-18T11:31:43.587Z,22.76
2019-05-18T11:32:43.573Z,22.72
2019-05-18T11:33:43.575Z,22.69
2019-05-18T11:34:43.548Z,22.70
2019-05-18T11:35:49.925Z,22.75
2019-05-18T11:36:43.536Z,22.81
2019-05-18T11:37:43.557Z,22.75
2019-05-18T11:38:43.519Z,22.66
2019-05-18T11:39:43.501Z,22.63
2019-05-18T11:40:43.481Z,22.68
2019-05-18T11:41:43.474Z,22.69
2019-05-18T11:42:43.462Z,22.68
2019-05-18T11:43:43.468Z,22.68
2019-05-18T11:44:43.437Z,22.66
2019-05-18T11:45:43.427Z,22.73
2019-05-18T11:46:43.423Z,22.68
2019-05-18T11:47:43.409Z,22.68
2019-05-18T11:48:43.393Z,22.65
2019-05-18T11:49:43.397Z,22.63
2019-05-18T11:50:43.375Z,22.70
2019-05-18T11:51:43.361Z,22.66
2019-05-18T11:52:43.354Z,22.69
2019-05-18T11:53:57.225Z,22.63
2019-05-18T11:54:44.342Z,22.68
2019-05-18T12:16:43.089Z,22.84
2019-05-18T12:47:42.740Z,22.78
2019-05-18T12:55:42.650Z,22.83
2019-05-18T13:15:42.437Z,22.99
2019-05-18T13:16:42.461Z,22.90
2019-05-18T13:17:42.411Z,22.85
2019-05-18T13:18:42.400Z,22.96
2019-05-18T13:19:42.383Z,22.87
2019-05-18T13:20:42.376Z,23.02
2019-05-18T13:21:42.364Z,22.98
2019-05-18T13:22:42.397Z,22.91
2019-05-18T13:23:42.343Z,22.99
2019-05-18T13:24:45.422Z,22.98
2019-05-18T13:25:42.325Z,22.96
2019-05-18T13:26:42.313Z,23.03
2019-05-18T13:27:42.294Z,22.96
2019-05-18T13:28:42.293Z,23.00
2019-05-18T13:29:42.280Z,22.99
2019-05-18T13:30:42.266Z,23.06
2019-05-18T13:31:42.251Z,22.99
2019-05-18T13:32:42.282Z,23.03
2019-05-18T13:33:42.227Z,23.05
2019-05-18T13:34:42.224Z,22.91
2019-05-18T13:35:45.385Z,22.91
2019-05-18T13:36:42.200Z,23.02
2019-05-18T13:37:42.200Z,23.08
2019-05-18T13:38:42.191Z,23.08
2019-05-18T13:39:42.167Z,23.03
2019-05-18T13:40:42.157Z,23.09
2019-05-18T13:41:42.143Z,23.03
2019-05-18T13:42:42.134Z,23.03
2019-05-18T13:44:42.107Z,23.08
2019-05-18T13:45:42.099Z,23.15
2019-05-18T13:46:42.087Z,23.02
2019-05-18T13:47:42.074Z,23.15
2019-05-18T13:48:42.067Z,23.09
2019-05-18T13:49:42.090Z,23.12
2019-05-18T13:50:44.771Z,23.10
2019-05-18T13:51:42.030Z,23.09
2019-05-18T13:52:42.021Z,23.10
2019-05-18T13:53:42.013Z,23.13
2019-05-18T13:54:42.002Z,23.10
2019-05-18T13:55:41.998Z,23.08
2019-05-18T13:56:41.972Z,23.13
2019-05-18T13:57:41.975Z,23.13
2019-05-18T13:58:41.983Z,23.09
2019-05-18T13:59:41.946Z,23.12
2019-05-18T14:00:41.935Z,23.18
2019-05-18T14:01:41.915Z,23.20
2019-05-18T14:02:41.911Z,23.13
2019-05-18T14:03:41.895Z,23.17
2019-05-18T14:04:41.883Z,23.18
2019-05-18T14:05:41.910Z,23.13
2019-05-18T14:06:41.870Z,23.23
2019-05-18T14:07:41.857Z,23.18
2019-05-18T14:08:41.840Z,23.23
2019-05-18T14:09:41.829Z,23.21
2019-05-18T14:10:41.814Z,23.23
2019-05-18T14:11:41.820Z,23.36
2019-05-18T14:12:41.798Z,23.31
2019-05-18T14:13:41.787Z,23.27
2019-05-18T14:14:41.772Z,23.31
2019-05-18T14:16:41.866Z,23.36
2019-05-18T14:17:41.739Z,23.37
2019-05-18T14:18:41.726Z,23.27
2019-05-18T14:19:41.752Z,23.41
2019-05-18T14:20:41.707Z,23.39
2019-05-18T14:21:41.693Z,23.37
2019-05-18T14:22:41.691Z,23.43
2019-05-18T14:23:41.678Z,23.43
2019-05-18T14:24:41.667Z,23.36
2019-05-18T14:25:41.646Z,23.34
2019-05-18T14:26:41.641Z,23.37
2019-05-18T14:27:41.663Z,23.54
2019-05-18T14:28:41.618Z,23.34
2019-05-18T14:29:41.609Z,23.40
2019-05-18T14:30:41.596Z,23.46
2019-05-18T14:31:41.584Z,23.43
2019-05-18T14:32:41.571Z,23.39
2019-05-18T14:33:41.566Z,23.44
2019-05-18T14:34:41.552Z,23.50
2019-05-18T14:35:41.540Z,23.46
2019-05-18T14:36:41.523Z,23.56
2019-05-18T14:37:41.516Z,23.54
2019-05-18T14:38:41.582Z,23.47
2019-05-18T14:39:41.501Z,23.44
2019-05-18T14:40:41.484Z,23.50
2019-05-18T14:41:42.564Z,23.47
2019-05-18T14:42:41.463Z,23.63
2019-05-18T14:43:41.448Z,23.59
2019-05-18T14:44:41.444Z,23.59
2019-05-18T14:45:41.421Z,23.61
2019-05-18T14:46:41.416Z,23.65
2019-05-18T14:47:47.812Z,23.51
2019-05-18T14:48:41.391Z,23.59
2019-05-18T14:49:41.390Z,23.62
2019-05-18T14:50:41.378Z,23.62
2019-05-18T14:51:41.357Z,23.66
2019-05-18T14:52:41.356Z,23.62
2019-05-18T14:53:41.337Z,23.63
2019-05-18T14:54:41.366Z,23.71
2019-05-18T14:55:41.310Z,23.71
2019-05-18T14:56:41.302Z,23.65
2019-05-18T14:57:41.295Z,23.71
2019-05-18T14:58:41.278Z,23.69
2019-05-18T14:59:41.273Z,23.73
2019-05-18T15:00:41.299Z,23.65
2019-05-18T15:01:41.254Z,23.73
2019-05-18T15:02:41.238Z,23.76
2019-05-18T15:03:41.225Z,23.76
2019-05-18T15:04:41.208Z,23.77
2019-05-18T15:05:41.200Z,23.74
2019-05-18T15:06:41.202Z,23.76
2019-05-18T15:07:41.181Z,23.80
2019-05-18T15:08:41.165Z,23.77
2019-05-18T15:09:41.156Z,23.87
2019-05-18T15:10:41.161Z,23.80
2019-05-18T15:11:41.140Z,23.86
2019-05-18T15:12:41.131Z,23.91
2019-05-18T15:13:41.120Z,23.92
2019-05-18T15:14:41.095Z,23.96
2019-05-18T15:15:41.092Z,23.91
2019-05-18T15:16:41.082Z,24.01
2019-05-18T15:17:41.065Z,23.95
2019-05-18T15:18:41.062Z,23.95
2019-05-18T15:19:47.436Z,24.01
2019-05-18T15:20:41.034Z,23.95
2019-05-18T15:21:41.123Z,24.02
2019-05-18T15:22:41.012Z,24.01
2019-05-18T15:23:40.994Z,24.06
2019-05-18T15:24:40.987Z,24.08
2019-05-18T15:25:50.259Z,24.06
2019-05-18T15:26:41.970Z,24.06
2019-05-18T15:27:40.988Z,24.03
2019-05-18T15:28:40.942Z,24.05
2019-05-18T15:29:40.933Z,24.10
2019-05-18T15:30:40.921Z,24.11
2019-05-18T15:31:40.913Z,24.05
2019-05-18T15:32:40.904Z,24.06
2019-05-18T15:33:40.885Z,24.11
2019-05-18T15:34:40.884Z,24.11
2019-05-18T15:35:40.867Z,24.17
2019-05-18T15:36:40.850Z,24.16
2019-05-18T15:37:43.596Z,24.13
2019-05-18T15:38:40.835Z,24.17
2019-05-18T15:39:40.822Z,24.16
2019-05-18T15:40:40.806Z,24.18
2019-05-18T15:41:40.800Z,24.16
2019-05-18T15:42:40.837Z,24.21
2019-05-18T15:43:40.777Z,24.18
2019-05-18T15:44:40.767Z,24.26
2019-05-18T15:45:40.749Z,24.23
2019-05-18T15:46:40.746Z,24.24
2019-05-18T15:47:40.737Z,24.29
2019-05-18T15:48:40.779Z,24.29
2019-05-18T15:49:40.706Z,24.20
2019-05-18T15:50:40.697Z,24.26
2019-05-18T15:51:46.808Z,24.20
2019-05-18T15:52:40.672Z,24.20
2019-05-18T15:53:40.663Z,24.24
2019-05-18T15:54:40.662Z,24.20
2019-05-18T15:55:40.645Z,24.20
2019-05-18T15:56:40.634Z,24.20
2019-05-18T15:57:40.635Z,24.18
2019-05-18T15:58:40.608Z,24.24
2019-05-18T15:59:40.610Z,24.20
2019-05-18T16:00:40.583Z,24.26
2019-05-18T16:01:40.579Z,24.14
2019-05-18T16:02:40.560Z,24.20
2019-05-18T16:03:40.550Z,24.18
2019-05-18T16:04:40.582Z,24.21
2019-05-18T16:05:40.544Z,24.17
2019-05-18T16:06:40.520Z,24.18
2019-05-18T16:07:40.514Z,24.23
2019-05-18T16:08:40.502Z,24.24
2019-05-18T16:09:40.483Z,24.23
2019-05-18T16:10:40.485Z,24.18
2019-05-18T16:11:40.468Z,24.16
2019-05-18T16:12:40.451Z,24.16
2019-05-18T16:13:40.495Z,24.21
2019-05-18T16:14:40.429Z,24.06
2019-05-18T16:15:40.419Z,24.11
2019-05-18T16:16:40.414Z,24.01
2019-05-18T16:17:40.581Z,24.06
2019-05-18T16:18:40.385Z,24.05
2019-05-18T16:19:40.371Z,23.96
2019-05-18T16:20:40.371Z,24.11
2019-05-18T16:21:40.358Z,23.93
2019-05-18T16:22:40.350Z,23.96
2019-05-18T16:23:46.759Z,23.91
2019-05-18T16:24:40.316Z,23.88
2019-05-18T16:25:40.328Z,23.87
2019-05-18T16:26:40.298Z,23.81
2019-05-18T16:27:40.287Z,23.77
2019-05-18T16:28:40.277Z,23.78
2019-05-18T16:29:40.260Z,23.76
2019-05-18T16:30:40.250Z,23.69
2019-05-18T16:31:40.254Z,23.77
2019-05-18T16:32:40.228Z,23.66
2019-05-18T16:33:40.217Z,23.65
2019-05-18T16:34:40.222Z,23.65
2019-05-18T16:35:40.196Z,23.62
2019-05-18T16:36:40.196Z,23.56
2019-05-18T16:37:40.182Z,23.48
2019-05-18T16:38:40.167Z,23.54
2019-05-18T16:39:40.164Z,23.46
2019-05-18T16:40:40.143Z,23.61
2019-05-18T16:41:40.134Z,23.56
2019-05-18T16:42:40.130Z,23.54
2019-05-18T16:43:40.104Z,23.41
2019-05-18T16:44:40.101Z,23.41
2019-05-18T16:45:40.085Z,23.44
2019-05-18T16:46:40.071Z,23.40
2019-05-18T16:47:40.074Z,23.48
2019-05-18T16:48:40.069Z,23.40
2019-05-18T16:49:40.045Z,23.46
2019-05-18T16:50:40.030Z,23.40
2019-05-18T16:51:40.028Z,23.34
2019-05-18T16:52:40.004Z,23.32
2019-05-18T16:53:40.007Z,23.39
2019-05-18T16:54:39.990Z,23.39
2019-05-18T16:55:46.383Z,23.36
2019-05-18T16:56:39.964Z,23.36
2019-05-18T16:57:39.957Z,23.40
2019-05-18T16:58:39.947Z,23.36
2019-05-18T16:59:39.962Z,23.34
2019-05-18T17:00:39.923Z,23.32
2019-05-18T17:01:39.903Z,23.31
2019-05-18T17:02:39.899Z,23.32
2019-05-18T17:03:39.892Z,23.27
2019-05-18T17:04:39.885Z,23.28
2019-05-18T17:05:39.864Z,23.17
2019-05-18T17:06:39.850Z,23.23
2019-05-18T17:07:39.839Z,23.23
2019-05-18T17:08:39.833Z,23.18
2019-05-18T17:09:39.828Z,23.21
2019-05-18T17:10:39.808Z,23.09
2019-05-18T17:11:39.795Z,23.17
2019-05-18T17:12:39.850Z,23.21
2019-05-18T17:13:39.771Z,23.13
2019-05-18T17:14:39.776Z,23.13
2019-05-18T17:15:39.748Z,23.09
2019-05-18T17:16:39.735Z,23.15
2019-05-18T17:17:39.728Z,23.10
2019-05-18T17:18:39.716Z,23.17
2019-05-18T17:19:39.707Z,23.09
2019-05-18T17:20:39.729Z,23.12
2019-05-18T17:21:39.678Z,23.12
2019-05-18T17:22:39.666Z,23.05
2019-05-18T17:23:39.658Z,23.15
2019-05-18T17:24:39.653Z,23.12
2019-05-18T17:25:39.633Z,23.05
2019-05-18T17:26:52.337Z,23.03
2019-05-18T17:28:48.806Z,23.13
2019-05-18T17:29:48.777Z,23.06
2019-05-18T17:30:48.767Z,22.93
2019-05-18T17:31:48.765Z,23.02
2019-05-18T17:32:48.754Z,22.96
2019-05-18T17:33:48.735Z,22.93
2019-05-18T17:34:48.726Z,22.98
2019-05-18T17:35:59.759Z,22.87
2019-05-18T17:36:52.572Z,22.96
2019-05-18T17:37:48.694Z,22.94
2019-05-18T17:38:48.681Z,22.87
2019-05-18T17:39:48.666Z,22.85
2019-05-18T17:40:49.561Z,22.81
2019-05-18T17:41:48.649Z,22.76
2019-05-18T17:42:48.642Z,22.81
2019-05-18T17:43:48.630Z,22.78
2019-05-18T17:44:48.609Z,22.68
2019-05-18T17:45:48.595Z,22.83
2019-05-18T17:46:48.585Z,22.73
2019-05-18T17:47:48.587Z,22.75
2019-05-18T17:48:48.568Z,22.80
2019-05-18T17:49:48.556Z,22.65
2019-05-18T17:50:48.542Z,22.69
2019-05-18T17:51:48.527Z,22.68
2019-05-18T17:52:48.560Z,22.57
2019-05-18T17:53:48.508Z,22.57
2019-05-18T17:54:48.493Z,22.50
2019-05-18T17:55:48.550Z,22.44
2019-05-18T17:56:48.471Z,22.36
2019-05-18T17:57:48.460Z,22.22
2019-05-18T17:58:48.459Z,22.20
2019-05-18T17:59:49.641Z,22.14
2019-05-18T18:00:54.812Z,22.11
2019-05-18T18:01:48.424Z,22.08
2019-05-18T18:02:48.554Z,22.02
2019-05-18T18:03:48.402Z,21.91
2019-05-18T18:04:48.379Z,21.77
2019-05-18T18:05:48.376Z,21.80
2019-05-18T18:06:48.358Z,21.77
2019-05-18T18:07:48.345Z,21.75
2019-05-18T18:08:48.341Z,21.70
2019-05-18T18:09:48.333Z,21.73
2019-05-18T18:10:48.314Z,21.66
2019-05-18T18:11:48.301Z,21.52
2019-05-18T18:12:48.289Z,21.54
2019-05-18T18:13:48.278Z,21.51
2019-05-18T18:14:48.278Z,21.43
2019-05-18T18:15:48.260Z,21.39